createdAt,value
2023-04-15T00:02:22.194Z,27.66
2023-04-15T00:04:54.845Z,27.59
2023-04-15T00:07:28.480Z,27.59
2023-04-15T00:10:01.426Z,27.60
2023-04-15T00:12:33.485Z,27.58
2023-04-15T00:15:06.480Z,27.62
2023-04-15T00:17:40.251Z,27.62
2023-04-15T00:20:13.261Z,27.57
2023-04-15T00:22:45.256Z,27.54
2023-04-15T00:25:18.071Z,27.52
2023-04-15T00:27:51.142Z,27.56
2023-04-15T00:30:23.166Z,27.52
2023-04-15T00:32:56.479Z,27.59
2023-04-15T00:35:28.629Z,27.59
2023-04-15T00:42:24.373Z,27.61
2023-04-15T00:44:54.855Z,27.55
2023-04-15T00:47:27.332Z,27.49
2023-04-15T00:50:00.560Z,27.47
2023-04-15T00:52:33.524Z,27.46
2023-04-15T00:55:06.591Z,27.46
2023-04-15T00:57:42.364Z,27.49
2023-04-15T01:04:07.242Z,27.58
2023-04-15T01:06:41.294Z,27.62
2023-04-15T01:09:16.154Z,27.63
2023-04-15T01:11:50.096Z,27.57
2023-04-15T01:14:23.175Z,27.58
2023-04-15T01:16:57.168Z,27.66
2023-04-15T01:19:30.198Z,27.59
2023-04-15T01:22:03.382Z,27.52
2023-04-15T01:24:39.442Z,27.41
2023-04-15T01:27:12.569Z,27.36
2023-04-15T01:29:46.238Z,27.41
2023-04-15T01:32:19.603Z,27.34
2023-04-15T01:34:53.850Z,27.33
2023-04-15T01:37:28.225Z,27.32
2023-04-15T01:40:01.626Z,27.43
2023-04-15T01:42:35.953Z,27.46
2023-04-15T01:45:10.127Z,27.49
2023-04-15T01:47:43.502Z,27.40
2023-04-15T01:50:19.505Z,27.52
2023-04-15T01:52:53.115Z,27.60
2023-04-15T01:55:25.753Z,27.69
2023-04-15T01:57:58.649Z,27.80
2023-04-15T02:00:33.528Z,27.79
2023-04-15T02:03:06.725Z,27.83
2023-04-15T02:05:40.074Z,27.87
2023-04-15T02:08:13.242Z,28.00
2023-04-15T02:10:46.852Z,28.05
2023-04-15T02:13:20.296Z,28.13
2023-04-15T02:15:55.379Z,28.24
2023-04-15T02:18:26.750Z,28.30
2023-04-15T02:21:01.255Z,28.44
2023-04-15T02:23:35.643Z,28.55
2023-04-15T02:26:08.937Z,28.61
2023-04-15T02:28:41.205Z,28.70
2023-04-15T02:31:14.680Z,28.84
2023-04-15T02:33:48.367Z,28.95
2023-04-15T02:36:21.450Z,29.06
2023-04-15T02:38:54.953Z,29.15
2023-04-15T02:41:30.303Z,29.17
2023-04-15T02:44:03.770Z,29.34
2023-04-15T02:46:37.191Z,29.46
2023-04-15T02:49:09.566Z,29.65
2023-04-15T02:51:43.956Z,29.75
2023-04-15T02:54:15.552Z,29.81
2023-04-15T02:56:49.453Z,29.93
2023-04-15T02:59:21.763Z,30.03
2023-04-15T03:01:52.856Z,30.03
2023-04-15T03:04:22.184Z,30.14
2023-04-15T03:06:51.367Z,30.24
2023-04-15T03:09:20.709Z,30.38
2023-04-15T03:11:50.009Z,30.51
2023-04-15T03:14:19.904Z,30.52
2023-04-15T03:16:51.492Z,30.61
2023-04-15T03:19:21.149Z,30.73
2023-04-15T03:21:50.099Z,30.83
2023-04-15T03:24:21.922Z,30.83
2023-04-15T03:26:51.148Z,30.68
2023-04-15T03:29:20.717Z,30.92
2023-04-15T03:31:50.333Z,31.02
2023-04-15T03:34:19.677Z,31.09
2023-04-15T03:36:49.140Z,31.14
2023-04-15T03:39:18.171Z,31.32
2023-04-15T03:41:47.961Z,31.48
2023-04-15T03:44:17.554Z,31.61
2023-04-15T03:46:46.776Z,31.72
2023-04-15T03:49:16.146Z,31.72
2023-04-15T03:51:45.957Z,31.83
2023-04-15T03:54:16.264Z,31.71
2023-04-15T03:56:45.591Z,31.81
2023-04-15T03:59:14.496Z,32.06
2023-04-15T04:01:43.914Z,32.13
2023-04-15T04:04:13.495Z,32.27
2023-04-15T04:06:43.117Z,32.43
2023-04-15T04:09:12.178Z,32.59
2023-04-15T04:11:41.471Z,32.58
2023-04-15T04:14:11.523Z,32.72
2023-04-15T04:16:40.741Z,32.83
2023-04-15T04:19:10.235Z,33.06
2023-04-15T04:21:40.609Z,33.30
2023-04-15T04:24:09.923Z,33.36
2023-04-15T04:26:39.032Z,33.43
2023-04-15T04:29:08.353Z,33.73
2023-04-15T04:31:38.084Z,33.86
2023-04-15T04:34:07.728Z,33.81
2023-04-15T04:36:36.849Z,34.18
2023-04-15T04:39:06.067Z,34.28
2023-04-15T04:41:35.290Z,34.50
2023-04-15T04:44:04.674Z,34.52
2023-04-15T04:46:34.508Z,34.59
2023-04-15T04:49:03.728Z,34.75
2023-04-15T04:51:33.506Z,34.77
2023-04-15T04:54:03.813Z,35.03
2023-04-15T04:56:33.194Z,35.20
2023-04-15T04:59:03.613Z,35.37
2023-04-15T05:01:33.054Z,35.24
2023-04-15T05:04:02.380Z,35.62
2023-04-15T05:06:32.651Z,35.66
2023-04-15T05:09:02.690Z,35.77
2023-04-15T05:11:32.401Z,35.90
2023-04-15T05:14:03.415Z,35.99
2023-04-15T05:16:32.815Z,36.29
2023-04-15T05:19:02.724Z,36.35
2023-04-15T05:21:32.929Z,36.45
2023-04-15T05:24:02.026Z,36.58
2023-04-15T05:26:31.300Z,36.73
2023-04-15T05:29:00.999Z,36.90
2023-04-15T05:31:30.440Z,37.08
2023-04-15T05:33:59.576Z,37.24
2023-04-15T05:36:29.813Z,37.09
2023-04-15T05:38:58.946Z,37.29
2023-04-15T05:41:28.360Z,37.35
2023-04-15T05:43:57.425Z,37.56
2023-04-15T05:46:26.727Z,37.73
2023-04-15T05:48:58.392Z,37.83
2023-04-15T05:51:28.396Z,38.05
2023-04-15T05:53:57.370Z,38.11
2023-04-15T05:56:28.256Z,38.33
2023-04-15T05:58:57.574Z,38.47
2023-04-15T06:01:27.308Z,38.44
2023-04-15T06:03:56.537Z,38.50
2023-04-15T06:06:26.197Z,38.44
2023-04-15T06:08:57.121Z,38.68
2023-04-15T06:11:27.894Z,38.70
2023-04-15T06:13:57.854Z,39.01
2023-04-15T06:16:27.217Z,38.98
2023-04-15T06:18:56.548Z,39.16
2023-04-15T06:21:25.735Z,39.27
2023-04-15T06:23:54.898Z,39.34
2023-04-15T06:26:24.253Z,39.27
2023-04-15T06:28:53.902Z,39.42
2023-04-15T06:31:23.286Z,39.44
2023-04-15T06:33:52.553Z,39.59
2023-04-15T06:36:22.269Z,39.68
2023-04-15T06:38:51.596Z,39.60
2023-04-15T06:41:20.828Z,39.76
2023-04-15T06:43:50.104Z,39.91
2023-04-15T06:46:19.265Z,39.97
2023-04-15T06:48:48.503Z,39.89
2023-04-15T06:51:17.912Z,40.07
2023-04-15T06:53:46.994Z,40.18
2023-04-15T06:56:16.207Z,40.24
2023-04-15T07:02:35.080Z,40.33
2023-04-15T07:05:04.156Z,40.52
2023-04-15T07:07:33.446Z,40.36
2023-04-15T07:10:04.671Z,40.50
2023-04-15T07:12:33.860Z,40.61
2023-04-15T07:15:03.541Z,40.64
2023-04-15T07:17:33.295Z,40.81
2023-04-15T07:20:02.553Z,40.66
2023-04-15T07:22:32.204Z,40.96
2023-04-15T07:25:11.328Z,41.12
2023-04-15T07:27:41.442Z,40.92
2023-04-15T07:30:11.616Z,40.99
2023-04-15T07:32:41.272Z,40.95
2023-04-15T07:35:10.984Z,41.02
2023-04-15T07:37:39.860Z,40.93
2023-04-15T07:40:10.211Z,40.97
2023-04-15T07:42:41.179Z,41.25
2023-04-15T07:45:11.098Z,41.27
2023-04-15T07:47:41.506Z,41.25
2023-04-15T07:50:12.606Z,41.37
2023-04-15T07:52:41.778Z,41.32
2023-04-15T07:55:11.916Z,41.39
2023-04-15T07:57:40.973Z,41.41
2023-04-15T08:00:10.998Z,41.24
2023-04-15T08:02:44.168Z,41.23
2023-04-15T08:05:15.096Z,41.25
2023-04-15T08:07:44.447Z,41.41
2023-04-15T08:10:14.145Z,41.56
2023-04-15T08:12:43.931Z,41.60
2023-04-15T08:15:14.071Z,41.51
2023-04-15T08:17:43.540Z,41.54
2023-04-15T08:20:13.171Z,41.67
2023-04-15T08:22:42.737Z,41.62
2023-04-15T08:25:15.747Z,41.39
2023-04-15T08:27:47.909Z,41.63
2023-04-15T08:30:17.342Z,41.66
2023-04-15T08:32:49.741Z,41.74
2023-04-15T08:35:19.445Z,41.74
2023-04-15T08:37:48.502Z,41.63
2023-04-15T08:40:18.022Z,41.77
2023-04-15T08:42:54.535Z,41.75
2023-04-15T08:45:24.657Z,41.59
2023-04-15T08:47:57.935Z,41.67
2023-04-15T08:50:30.645Z,41.73
2023-04-15T08:53:03.484Z,41.54
2023-04-15T08:55:37.602Z,41.64
2023-04-15T08:58:07.568Z,41.33
2023-04-15T09:00:37.175Z,41.53
2023-04-15T09:03:10.292Z,41.66
2023-04-15T09:05:40.358Z,41.57
2023-04-15T09:08:09.672Z,41.59
2023-04-15T09:14:53.216Z,41.32
2023-04-15T09:17:22.687Z,41.24
2023-04-15T09:20:08.904Z,41.34
2023-04-15T09:22:41.901Z,41.36
2023-04-15T09:25:17.314Z,41.35
2023-04-15T09:32:16.752Z,41.31
2023-04-15T09:34:45.989Z,41.21
2023-04-15T09:37:31.348Z,40.93
2023-04-15T09:40:01.499Z,41.10
2023-04-15T09:42:31.040Z,41.05
2023-04-15T09:45:13.246Z,40.98
2023-04-15T09:47:42.788Z,40.88
2023-04-15T09:50:12.636Z,40.80
2023-04-15T09:52:45.712Z,40.82
2023-04-15T09:55:15.835Z,40.87
2023-04-15T09:57:50.372Z,40.89
2023-04-15T10:00:19.889Z,40.73
2023-04-15T10:02:50.056Z,40.71
2023-04-15T10:05:19.912Z,40.72
2023-04-15T10:07:49.270Z,40.62
2023-04-15T10:10:19.183Z,40.61
2023-04-15T10:12:48.175Z,40.42
2023-04-15T10:15:21.493Z,40.53
2023-04-15T10:17:52.164Z,40.53
2023-04-15T10:20:22.414Z,40.34
2023-04-15T10:22:53.282Z,40.33
2023-04-15T10:25:23.079Z,40.32
2023-04-15T10:27:53.808Z,40.17
2023-04-15T10:30:23.881Z,40.31
2023-04-15T10:32:54.306Z,40.30
2023-04-15T10:35:24.650Z,40.19
2023-04-15T10:37:53.668Z,40.17
2023-04-15T10:40:32.356Z,40.24
2023-04-15T10:43:02.835Z,40.17
2023-04-15T10:45:37.759Z,40.23
2023-04-15T10:48:09.906Z,40.10
2023-04-15T10:50:40.351Z,40.09
2023-04-15T10:53:12.308Z,40.08
2023-04-15T10:55:41.692Z,40.05
2023-04-15T10:58:11.894Z,40.02
2023-04-15T11:04:59.208Z,40.10
2023-04-15T11:07:50.065Z,40.06
2023-04-15T11:10:22.289Z,40.01
2023-04-15T11:12:59.029Z,39.91
2023-04-15T11:15:47.380Z,39.91
2023-04-15T11:18:21.406Z,39.90
2023-04-15T11:20:57.456Z,39.92
2023-04-15T11:23:52.514Z,39.88
2023-04-15T11:26:28.220Z,39.90
2023-04-15T11:28:58.602Z,39.82
2023-04-15T11:31:30.360Z,39.87
2023-04-15T11:34:04.322Z,39.90
2023-04-15T11:36:34.258Z,39.87
2023-04-15T11:39:05.014Z,39.74
2023-04-15T11:41:34.369Z,39.77
2023-04-15T11:44:03.996Z,39.72
2023-04-15T11:46:33.225Z,39.67
2023-04-15T11:49:02.747Z,39.69
2023-04-15T11:51:36.141Z,39.65
2023-04-15T11:54:06.020Z,39.68
2023-04-15T11:56:35.224Z,39.67
2023-04-15T11:59:05.517Z,39.68
2023-04-15T12:01:40.553Z,39.60
2023-04-15T12:04:25.890Z,39.76
2023-04-15T12:06:55.431Z,39.64
2023-04-15T12:09:24.554Z,39.56
2023-04-15T12:11:55.028Z,39.55
2023-04-15T12:14:33.706Z,39.55
2023-04-15T12:17:06.012Z,39.42
2023-04-15T12:19:40.424Z,39.36
2023-04-15T12:22:14.990Z,39.27
2023-04-15T12:24:48.856Z,39.15
2023-04-15T12:27:18.839Z,39.03
2023-04-15T12:29:48.168Z,38.92
2023-04-15T12:32:21.203Z,38.85
2023-04-15T12:34:55.416Z,38.78
2023-04-15T12:37:25.165Z,38.59
2023-04-15T12:39:55.406Z,38.46
2023-04-15T12:42:24.607Z,38.33
2023-04-15T12:44:53.778Z,38.23
2023-04-15T12:47:22.995Z,38.13
2023-04-15T12:49:52.845Z,38.03
2023-04-15T12:52:24.325Z,37.90
2023-04-15T12:54:54.492Z,37.79
2023-04-15T12:57:23.590Z,37.65
2023-04-15T12:59:52.711Z,37.55
2023-04-15T13:02:25.124Z,37.46
2023-04-15T13:04:55.076Z,37.30
2023-04-15T13:07:24.105Z,37.24
2023-04-15T13:09:53.525Z,37.19
2023-04-15T13:12:23.092Z,37.11
2023-04-15T13:14:52.293Z,37.06
2023-04-15T13:17:23.163Z,36.96
2023-04-15T13:19:52.222Z,36.86
2023-04-15T13:22:21.536Z,36.77
2023-04-15T13:24:52.571Z,36.71
2023-04-15T13:27:22.406Z,36.64
2023-04-15T13:29:51.465Z,36.45
2023-04-15T13:32:20.769Z,36.41
2023-04-15T13:34:50.136Z,36.22
2023-04-15T13:37:19.439Z,36.12
2023-04-15T13:39:48.869Z,36.12
2023-04-15T13:42:18.086Z,35.99
2023-04-15T13:44:47.220Z,35.99
2023-04-15T13:47:17.377Z,35.95
2023-04-15T13:49:46.469Z,35.88
2023-04-15T13:52:15.806Z,35.82
2023-04-15T13:54:45.321Z,35.73
2023-04-15T13:57:15.370Z,35.59
2023-04-15T14:03:57.866Z,35.41
2023-04-15T14:06:28.245Z,35.28
2023-04-15T14:08:58.188Z,35.21
2023-04-15T14:11:27.260Z,35.17
2023-04-15T14:13:56.374Z,35.11
2023-04-15T14:16:25.544Z,35.03
2023-04-15T14:18:55.363Z,35.03
2023-04-15T14:21:24.128Z,34.97
2023-04-15T14:23:53.387Z,34.91
2023-04-15T14:26:22.173Z,34.88
2023-04-15T14:28:51.505Z,34.81
2023-04-15T14:31:21.229Z,34.77
2023-04-15T14:33:50.577Z,34.72
2023-04-15T14:36:19.748Z,34.65
2023-04-15T14:38:48.950Z,34.62
2023-04-15T14:41:18.344Z,34.58
2023-04-15T14:43:47.562Z,34.49
2023-04-15T14:46:17.343Z,34.44
2023-04-15T14:48:46.545Z,34.38
2023-04-15T14:51:15.764Z,34.35
2023-04-15T14:53:44.967Z,34.35
2023-04-15T14:56:14.159Z,34.33
2023-04-15T14:58:43.222Z,34.17
2023-04-15T15:05:03.389Z,34.04
2023-04-15T15:07:32.589Z,34.03
2023-04-15T15:10:02.224Z,33.97
2023-04-15T15:12:31.482Z,33.98
2023-04-15T15:15:01.581Z,33.96
2023-04-15T15:17:32.619Z,33.96
2023-04-15T15:20:01.582Z,33.92
2023-04-15T15:22:30.630Z,33.92
2023-04-15T15:25:00.283Z,33.92
2023-04-15T15:27:29.760Z,33.92
2023-04-15T15:29:58.918Z,33.89
2023-04-15T15:32:28.057Z,33.72
2023-04-15T15:34:56.965Z,33.70
2023-04-15T15:37:26.258Z,33.64
2023-04-15T15:39:55.354Z,33.61
2023-04-15T15:42:24.778Z,33.58
2023-04-15T15:44:54.277Z,33.51
2023-04-15T15:47:24.244Z,33.52
2023-04-15T15:49:53.464Z,33.49
2023-04-15T15:52:22.694Z,33.46
2023-04-15T15:54:51.899Z,33.39
2023-04-15T15:57:20.735Z,33.31
2023-04-15T15:59:51.177Z,33.28
2023-04-15T16:02:40.082Z,33.21
2023-04-15T16:05:13.204Z,33.20
2023-04-15T16:07:42.375Z,33.16
2023-04-15T16:10:12.249Z,33.16
2023-04-15T16:12:42.608Z,33.05
2023-04-15T16:15:12.052Z,33.24
2023-04-15T16:17:41.132Z,33.21
2023-04-15T16:20:10.599Z,33.14
2023-04-15T16:22:40.355Z,33.08
2023-04-15T16:25:09.685Z,33.01
2023-04-15T16:30:12.017Z,32.95
2023-04-15T16:32:41.241Z,32.87
2023-04-15T16:35:10.714Z,32.85
2023-04-15T16:37:39.855Z,32.79
2023-04-15T16:40:09.473Z,32.80
2023-04-15T16:42:38.341Z,32.78
2023-04-15T16:45:07.981Z,32.75
2023-04-15T16:47:37.045Z,32.66
2023-04-15T16:50:06.521Z,32.63
2023-04-15T16:52:35.710Z,32.60
2023-04-15T16:55:07.514Z,32.56
2023-04-15T16:58:00.481Z,32.51
2023-04-15T17:00:26.321Z,32.44
2023-04-15T17:02:57.259Z,32.48
2023-04-15T17:05:28.218Z,32.53
2023-04-15T17:07:57.355Z,32.51
2023-04-15T17:10:26.290Z,32.52
2023-04-15T17:12:57.631Z,32.51
2023-04-15T17:15:26.975Z,32.49
2023-04-15T17:17:56.020Z,32.50
2023-04-15T17:20:25.348Z,32.43
2023-04-15T17:22:54.708Z,32.36
2023-04-15T17:25:24.480Z,32.31
2023-04-15T17:27:53.464Z,32.30
2023-04-15T17:30:22.617Z,32.18
2023-04-15T17:32:53.115Z,32.20
2023-04-15T17:35:22.440Z,32.19
2023-04-15T17:37:51.739Z,32.17
2023-04-15T17:40:20.851Z,32.21
2023-04-15T17:42:50.298Z,32.21
2023-04-15T17:45:19.831Z,32.21
2023-04-15T17:47:49.712Z,32.21
2023-04-15T17:50:18.892Z,32.19
2023-04-15T17:52:49.318Z,32.15
2023-04-15T17:55:18.458Z,32.10
2023-04-15T17:57:48.100Z,32.13
2023-04-15T18:00:18.443Z,32.19
2023-04-15T18:02:48.049Z,32.25
2023-04-15T18:05:17.043Z,32.19
2023-04-15T18:07:46.573Z,32.17
2023-04-15T18:10:15.619Z,32.05
2023-04-15T18:12:44.608Z,32.05
2023-04-15T18:15:15.644Z,32.00
2023-04-15T18:17:44.948Z,32.04
2023-04-15T18:20:13.914Z,31.98
2023-04-15T18:22:44.530Z,31.93
2023-04-15T18:25:13.675Z,31.82
2023-04-15T18:27:42.954Z,31.77
2023-04-15T18:30:13.243Z,31.74
2023-04-15T18:32:43.264Z,31.71
2023-04-15T18:35:12.248Z,31.64
2023-04-15T18:37:41.942Z,31.67
2023-04-15T18:40:11.636Z,31.64
2023-04-15T18:42:41.121Z,31.61
2023-04-15T18:45:10.552Z,31.59
2023-04-15T18:47:39.828Z,31.50
2023-04-15T18:50:09.352Z,31.48
2023-04-15T18:52:38.573Z,31.44
2023-04-15T18:55:07.971Z,31.43
2023-04-15T18:57:37.847Z,31.33
2023-04-15T19:00:07.816Z,31.28
2023-04-15T19:02:36.971Z,31.27
2023-04-15T19:05:07.029Z,31.26
2023-04-15T19:07:37.960Z,31.20
2023-04-15T19:10:07.829Z,31.21
2023-04-15T19:12:38.099Z,31.17
2023-04-15T19:15:49.899Z,31.25
2023-04-15T19:18:19.498Z,31.11
2023-04-15T19:20:51.432Z,31.06
2023-04-15T19:23:20.527Z,31.07
2023-04-15T19:25:49.585Z,30.98
2023-04-15T19:28:18.798Z,30.96
2023-04-15T19:30:47.914Z,30.97
2023-04-15T19:33:17.183Z,30.89
2023-04-15T19:35:46.315Z,30.91
2023-04-15T19:38:15.810Z,30.82
2023-04-15T19:40:44.926Z,30.87
2023-04-15T19:43:14.268Z,30.76
2023-04-15T19:45:43.310Z,30.75
2023-04-15T19:48:12.486Z,30.74
2023-04-15T19:50:41.541Z,30.63
2023-04-15T19:53:10.772Z,30.63
2023-04-15T19:55:39.707Z,30.61
2023-04-15T19:58:08.991Z,30.68
2023-04-15T20:00:39.328Z,30.59
2023-04-15T20:03:09.410Z,30.57
2023-04-15T20:05:39.752Z,30.47
2023-04-15T20:08:09.884Z,30.39
2023-04-15T20:10:40.181Z,30.42
2023-04-15T20:13:10.087Z,30.44
2023-04-15T20:15:40.418Z,30.43
2023-04-15T20:18:10.402Z,30.46
2023-04-15T20:20:42.200Z,30.41
2023-04-15T20:23:13.320Z,30.40
2023-04-15T20:25:45.716Z,30.27
2023-04-15T20:28:17.849Z,30.38
2023-04-15T20:30:49.925Z,30.24
2023-04-15T20:33:22.578Z,30.10
2023-04-15T20:35:53.457Z,30.22
2023-04-15T20:38:25.847Z,30.01
2023-04-15T20:40:56.669Z,30.20
2023-04-15T20:43:29.479Z,30.11
2023-04-15T20:46:07.004Z,30.09
2023-04-15T20:48:50.079Z,30.01
2023-04-15T20:51:23.093Z,29.94
2023-04-15T20:53:54.645Z,29.83
2023-04-15T20:56:27.836Z,29.94
2023-04-15T20:58:59.002Z,29.89
2023-04-15T21:01:32.226Z,29.91
2023-04-15T21:04:03.484Z,29.92
2023-04-15T21:06:36.797Z,29.73
2023-04-15T21:09:08.561Z,29.69
2023-04-15T21:11:57.356Z,29.62
2023-04-15T21:14:32.366Z,29.70
2023-04-15T21:17:11.213Z,29.63
2023-04-15T21:19:44.048Z,29.71
2023-04-15T21:22:15.691Z,29.60
2023-04-15T21:24:47.853Z,29.62
2023-04-15T21:27:20.191Z,29.65
2023-04-15T21:29:52.370Z,29.62
2023-04-15T21:32:24.473Z,29.77
2023-04-15T21:34:56.117Z,29.61
2023-04-15T21:37:27.675Z,29.54
2023-04-15T21:39:59.237Z,29.60
2023-04-15T21:42:32.377Z,29.63
2023-04-15T21:45:04.011Z,29.59
2023-04-15T21:48:05.214Z,29.58
2023-04-15T21:50:28.231Z,29.54
2023-04-15T21:52:59.562Z,29.47
2023-04-15T21:55:32.752Z,29.50
2023-04-15T21:58:05.911Z,29.51
2023-04-15T22:00:39.132Z,29.46
2023-04-15T22:03:13.313Z,29.45
2023-04-15T22:05:51.270Z,29.54
2023-04-15T22:08:23.334Z,29.51
2023-04-15T22:10:55.902Z,29.46
2023-04-15T22:13:27.620Z,29.31
2023-04-15T22:15:59.186Z,29.35
2023-04-15T22:18:31.173Z,29.32
2023-04-15T22:21:04.369Z,29.27
2023-04-15T22:23:36.998Z,29.07
2023-04-15T22:26:10.304Z,29.27
2023-04-15T22:28:41.527Z,29.18
2023-04-15T22:31:14.059Z,29.22
2023-04-15T22:33:45.926Z,29.10
2023-04-15T22:36:19.409Z,29.14
2023-04-15T22:38:52.854Z,29.02
2023-04-15T22:41:25.440Z,29.16
2023-04-15T22:43:57.438Z,29.03
2023-04-15T22:46:29.492Z,29.02
2023-04-15T22:49:01.282Z,28.93
2023-04-15T22:51:35.700Z,28.96
2023-04-15T22:54:07.709Z,28.95
2023-04-15T22:56:40.303Z,28.94
2023-04-15T22:59:11.596Z,28.82
2023-04-15T23:01:43.915Z,28.79
2023-04-15T23:04:23.572Z,28.82
2023-04-15T23:07:01.165Z,28.75
2023-04-15T23:09:32.666Z,28.73
2023-04-15T23:12:06.318Z,28.79
2023-04-15T23:14:37.507Z,28.66
2023-04-15T23:17:09.469Z,28.69
2023-04-15T23:19:42.005Z,28.68
2023-04-15T23:22:14.227Z,28.62
2023-04-15T23:24:46.742Z,28.44
2023-04-15T23:27:20.112Z,28.56
2023-04-15T23:29:52.997Z,28.50
2023-04-15T23:32:26.729Z,28.58
2023-04-15T23:34:58.533Z,28.58
2023-04-15T23:37:30.386Z,28.59
2023-04-15T23:40:01.555Z,28.55
2023-04-15T23:42:34.390Z,28.49
2023-04-15T23:45:06.313Z,28.36
2023-04-15T23:47:38.935Z,28.31
2023-04-15T23:50:12.520Z,28.14
2023-04-15T23:52:44.575Z,28.13
2023-04-15T23:55:16.352Z,28.20
2023-04-15T23:57:48.940Z,28.08
